sensor_id;sensor_type;location;lat;lon;timestamp;pressure;altitude;pressure_sealevel;temperature;humidity
44079;BME280;29744;49.078;12.878;2024-01-07T00:02:03;95494.25;;;14.67;36.80
44079;BME280;29744;49.078;12.878;2024-01-07T00:07:06;95495.38;;;14.66;36.46
44079;BME280;29744;49.078;12.878;2024-01-07T00:12:07;95497.63;;;14.64;36.70
44079;BME280;29744;49.078;12.878;2024-01-07T00:22:08;95501.03;;;14.61;36.58
44079;BME280;29744;49.078;12.878;2024-01-07T00:27:08;95501.38;;;14.60;36.68
44079;BME280;29744;49.078;12.878;2024-01-07T00:32:08;95503.63;;;14.58;37.10
44079;BME280;29744;49.078;12.878;2024-01-07T00:37:09;95512.88;;;14.57;37.14
44079;BME280;29744;49.078;12.878;2024-01-07T00:42:09;95510.50;;;14.55;37.18
44079;BME280;29744;49.078;12.878;2024-01-07T00:47:13;95514.00;;;14.56;36.86
44079;BME280;29744;49.078;12.878;2024-01-07T00:52:13;95515.47;;;14.53;36.87
44079;BME280;29744;49.078;12.878;2024-01-07T00:57:13;95526.59;;;14.52;36.93
44079;BME280;29744;49.078;12.878;2024-01-07T01:02:14;95523.13;;;14.51;36.97
44079;BME280;29744;49.078;12.878;2024-01-07T01:07:14;95535.38;;;14.48;36.79
44079;BME280;29744;49.078;12.878;2024-01-07T01:12:15;95539.22;;;14.47;37.32
44079;BME280;29744;49.078;12.878;2024-01-07T01:17:15;95549.22;;;14.47;36.81
44079;BME280;29744;49.078;12.878;2024-01-07T01:22:15;95548.00;;;14.44;37.14
44079;BME280;29744;49.078;12.878;2024-01-07T01:27:15;95551.81;;;14.43;37.22
44079;BME280;29744;49.078;12.878;2024-01-07T01:32:16;95554.06;;;14.41;37.17
44079;BME280;29744;49.078;12.878;2024-01-07T01:37:16;95554.06;;;14.41;37.15
44079;BME280;29744;49.078;12.878;2024-01-07T01:42:17;95559.81;;;14.40;36.86
44079;BME280;29744;49.078;12.878;2024-01-07T01:47:17;95553.97;;;14.38;36.87
44079;BME280;29744;49.078;12.878;2024-01-07T01:52:18;95556.69;;;14.38;37.51
44079;BME280;29744;49.078;12.878;2024-01-07T01:57:20;95552.41;;;14.37;37.40
44079;BME280;29744;49.078;12.878;2024-01-07T02:02:22;95555.44;;;14.35;37.48
44079;BME280;29744;49.078;12.878;2024-01-07T02:07:24;95558.16;;;14.35;37.15
44079;BME280;29744;49.078;12.878;2024-01-07T02:12:25;95562.31;;;14.33;37.28
44079;BME280;29744;49.078;12.878;2024-01-07T02:17:26;95561.53;;;14.32;37.36
44079;BME280;29744;49.078;12.878;2024-01-07T02:22:26;95564.22;;;14.32;37.02
44079;BME280;29744;49.078;12.878;2024-01-07T02:27:27;95554.91;;;14.30;37.61
44079;BME280;29744;49.078;12.878;2024-01-07T02:32:27;95563.34;;;14.28;37.25
44079;BME280;29744;49.078;12.878;2024-01-07T02:37:28;95553.69;;;14.27;37.04
44079;BME280;29744;49.078;12.878;2024-01-07T02:42:28;95563.69;;;14.27;37.53
44079;BME280;29744;49.078;12.878;2024-01-07T02:47:28;95557.06;;;14.24;37.21
44079;BME280;29744;49.078;12.878;2024-01-07T02:52:29;95557.06;;;14.24;37.11
44079;BME280;29744;49.078;12.878;2024-01-07T02:57:29;95564.38;;;14.24;37.07
44079;BME280;29744;49.078;12.878;2024-01-07T03:02:29;95561.69;;;14.24;37.30
44079;BME280;29744;49.078;12.878;2024-01-07T03:07:29;95565.50;;;14.23;37.39
44079;BME280;29744;49.078;12.878;2024-01-07T03:12:30;95561.19;;;14.22;37.45
44079;BME280;29744;49.078;12.878;2024-01-07T03:17:30;95567.41;;;14.22;37.40
44079;BME280;29744;49.078;12.878;2024-01-07T03:22:31;95560.75;;;14.19;37.62
44079;BME280;29744;49.078;12.878;2024-01-07T03:27:31;95562.66;;;14.19;37.36
44079;BME280;29744;49.078;12.878;2024-01-07T03:32:31;95569.19;;;14.18;37.57
44079;BME280;29744;49.078;12.878;2024-01-07T03:37:32;95570.31;;;14.17;37.35
44079;BME280;29744;49.078;12.878;2024-01-07T03:42:32;95577.63;;;14.16;37.59
44079;BME280;29744;49.078;12.878;2024-01-07T03:47:32;95586.84;;;14.15;37.13
44079;BME280;29744;49.078;12.878;2024-01-07T03:52:33;95580.66;;;14.15;37.08
44079;BME280;29744;49.078;12.878;2024-01-07T03:57:34;95591.44;;;14.15;37.15
44079;BME280;29744;49.078;12.878;2024-01-07T04:02:34;95600.66;;;14.14;37.37
44079;BME280;29744;49.078;12.878;2024-01-07T04:07:35;95602.91;;;14.12;37.16
44079;BME280;29744;49.078;12.878;2024-01-07T04:12:36;95608.31;;;14.12;37.16
44079;BME280;29744;49.078;12.878;2024-01-07T04:17:37;95597.88;;;14.10;37.47
44079;BME280;29744;49.078;12.878;2024-01-07T04:22:37;95611.34;;;14.10;37.73
44079;BME280;29744;49.078;12.878;2024-01-07T04:27:38;95615.94;;;14.10;37.47
44079;BME280;29744;49.078;12.878;2024-01-07T04:32:38;95612.47;;;14.09;37.37
44079;BME280;29744;49.078;12.878;2024-01-07T04:37:39;95615.50;;;14.08;37.46
44079;BME280;29744;49.078;12.878;2024-01-07T04:42:39;95618.97;;;14.08;37.19
44079;BME280;29744;49.078;12.878;2024-01-07T04:47:39;95611.34;;;14.10;37.53
44079;BME280;29744;49.078;12.878;2024-01-07T04:52:40;95624.16;;;14.13;37.87
44079;BME280;29744;49.078;12.878;2024-01-07T04:57:40;95618.50;;;14.18;37.17
44079;BME280;29744;49.078;12.878;2024-01-07T05:02:40;95629.88;;;14.24;37.23
44079;BME280;29744;49.078;12.878;2024-01-07T05:07:41;95635.47;;;14.31;37.51
44079;BME280;29744;49.078;12.878;2024-01-07T05:12:42;95640.75;;;14.40;37.68
44079;BME280;29744;49.078;12.878;2024-01-07T05:17:42;95630.59;;;14.49;37.55
44079;BME280;29744;49.078;12.878;2024-01-07T05:22:42;95636.28;;;14.60;37.61
44079;BME280;29744;49.078;12.878;2024-01-07T05:27:43;95638.50;;;14.70;37.53
44079;BME280;29744;49.078;12.878;2024-01-07T05:32:43;95648.81;;;14.80;37.25
44079;BME280;29744;49.078;12.878;2024-01-07T05:37:43;95641.00;;;14.91;37.65
44079;BME280;29744;49.078;12.878;2024-01-07T05:42:44;95637.81;;;15.01;37.43
44079;BME280;29744;49.078;12.878;2024-01-07T05:47:44;95643.06;;;15.09;37.09
44079;BME280;29744;49.078;12.878;2024-01-07T05:52:44;95645.97;;;15.17;37.06
44079;BME280;29744;49.078;12.878;2024-01-07T05:57:45;95649.97;;;15.23;36.75
44079;BME280;29744;49.078;12.878;2024-01-07T06:02:45;95658.59;;;15.28;36.82
44079;BME280;29744;49.078;12.878;2024-01-07T06:07:45;95662.19;;;15.32;37.12
44079;BME280;29744;49.078;12.878;2024-01-07T06:12:46;95679.28;;;15.36;36.78
44079;BME280;29744;49.078;12.878;2024-01-07T06:17:46;95697.50;;;15.39;36.51
44079;BME280;29744;49.078;12.878;2024-01-07T06:22:47;95698.28;;;15.40;36.41
44079;BME280;29744;49.078;12.878;2024-01-07T06:27:47;95695.22;;;15.41;36.38
44079;BME280;29744;49.078;12.878;2024-01-07T06:32:47;95687.13;;;15.41;36.37
44079;BME280;29744;49.078;12.878;2024-01-07T06:37:48;95706.47;;;15.43;36.42
44079;BME280;29744;49.078;12.878;2024-01-07T06:42:49;95707.59;;;15.42;36.51
44079;BME280;29744;49.078;12.878;2024-01-07T06:47:49;95715.28;;;15.40;36.62
44079;BME280;29744;49.078;12.878;2024-01-07T06:52:49;95719.09;;;15.39;36.33
44079;BME280;29744;49.078;12.878;2024-01-07T06:57:50;95724.84;;;15.38;36.52
44079;BME280;29744;49.078;12.878;2024-01-07T07:02:50;95736.00;;;15.36;36.58
44079;BME280;29744;49.078;12.878;2024-01-07T07:07:50;95741.41;;;15.36;36.16
44079;BME280;29744;49.078;12.878;2024-01-07T07:12:51;95741.75;;;15.35;36.77
44079;BME280;29744;49.078;12.878;2024-01-07T07:17:51;95750.19;;;15.33;36.68
44079;BME280;29744;49.078;12.878;2024-01-07T07:22:51;95759.78;;;15.31;36.35
44079;BME280;29744;49.078;12.878;2024-01-07T07:27:52;95762.81;;;15.29;36.53
44079;BME280;29744;49.078;12.878;2024-01-07T07:32:52;95771.63;;;15.26;36.35
44079;BME280;29744;49.078;12.878;2024-01-07T07:37:53;95778.16;;;15.25;36.19
44079;BME280;29744;49.078;12.878;2024-01-07T07:42:53;95787.72;;;15.23;36.29
44079;BME280;29744;49.078;12.878;2024-01-07T07:47:53;95789.31;;;15.24;36.17
44079;BME280;29744;49.078;12.878;2024-01-07T07:52:54;95787.72;;;15.23;36.52
44079;BME280;29744;49.078;12.878;2024-01-07T07:57:54;95800.44;;;15.22;36.34
44079;BME280;29744;49.078;12.878;2024-01-07T08:02:54;95802.03;;;15.23;36.25
44079;BME280;29744;49.078;12.878;2024-01-07T08:07:55;95810.47;;;15.22;36.34
44079;BME280;29744;49.078;12.878;2024-01-07T08:12:56;95818.22;;;15.23;36.52
44079;BME280;29744;49.078;12.878;2024-01-07T08:17:56;95829.03;;;15.23;36.54
44079;BME280;29744;49.078;12.878;2024-01-07T08:22:56;95829.03;;;15.23;36.19
44079;BME280;29744;49.078;12.878;2024-01-07T08:27:57;95846.81;;;15.24;36.38
44079;BME280;29744;49.078;12.878;2024-01-07T08:32:57;95847.16;;;15.23;36.32
44079;BME280;29744;49.078;12.878;2024-01-07T08:37:58;95855.25;;;15.23;36.53
44079;BME280;29744;49.078;12.878;2024-01-07T08:42:58;95844.44;;;15.23;36.77
44079;BME280;29744;49.078;12.878;2024-01-07T08:47:58;95866.06;;;15.23;36.80
44079;BME280;29744;49.078;12.878;2024-01-07T08:52:59;95872.59;;;15.22;36.27
44079;BME280;29744;49.078;12.878;2024-01-07T08:58:00;95876.41;;;15.21;36.73
44079;BME280;29744;49.078;12.878;2024-01-07T09:03:00;95889.94;;;15.21;36.70
44079;BME280;29744;49.078;12.878;2024-01-07T09:08:00;95886.00;;;15.18;36.52
44079;BME280;29744;49.078;12.878;2024-01-07T09:13:03;95895.22;;;15.17;36.65
44079;BME280;29744;49.078;12.878;2024-01-07T09:18:03;95909.84;;;15.16;36.35
44079;BME280;29744;49.078;12.878;2024-01-07T09:23:04;95910.53;;;15.13;36.78
44079;BME280;29744;49.078;12.878;2024-01-07T09:28:04;95915.16;;;15.12;36.36
44079;BME280;29744;49.078;12.878;2024-01-07T09:33:05;95919.31;;;15.10;36.83
44079;BME280;29744;49.078;12.878;2024-01-07T09:38:05;95914.25;;;15.08;36.26
44079;BME280;29744;49.078;12.878;2024-01-07T09:43:06;95911.88;;;15.07;36.57
44079;BME280;29744;49.078;12.878;2024-01-07T09:48:07;95926.53;;;15.06;36.60
44079;BME280;29744;49.078;12.878;2024-01-07T09:53:11;95919.88;;;15.03;36.73
44079;BME280;29744;49.078;12.878;2024-01-07T09:58:13;95924.50;;;15.03;36.46
44079;BME280;29744;49.078;12.878;2024-01-07T10:03:14;95922.09;;;15.01;36.33
44079;BME280;29744;49.078;12.878;2024-01-07T10:08:14;95924.69;;;14.98;36.70
44079;BME280;29744;49.078;12.878;2024-01-07T10:13:14;95920.41;;;14.97;36.46
44079;BME280;29744;49.078;12.878;2024-01-07T10:18:15;95924.59;;;14.94;36.64
44079;BME280;29744;49.078;12.878;2024-01-07T10:23:19;95926.84;;;14.92;36.72
44079;BME280;29744;49.078;12.878;2024-01-07T10:28:19;95935.28;;;14.91;36.46
44079;BME280;29744;49.078;12.878;2024-01-07T10:33:20;95939.78;;;14.87;36.96
44079;BME280;29744;49.078;12.878;2024-01-07T10:38:20;95938.53;;;14.84;36.70
44079;BME280;29744;49.078;12.878;2024-01-07T10:43:22;95948.53;;;14.83;36.58
44079;BME280;29744;49.078;12.878;2024-01-07T10:48:26;95950.78;;;14.81;36.42
44079;BME280;29744;49.078;12.878;2024-01-07T10:53:34;95954.16;;;14.78;36.81
44079;BME280;29744;49.078;12.878;2024-01-07T10:58:39;95956.41;;;14.76;36.73
44079;BME280;29744;49.078;12.878;2024-01-07T11:04:00;95956.31;;;14.73;36.50
44079;BME280;29744;49.078;12.878;2024-01-07T11:09:17;95953.16;;;14.71;36.73
44079;BME280;29744;49.078;12.878;2024-01-07T11:14:36;95956.97;;;14.70;36.49
44079;BME280;29744;49.078;12.878;2024-01-07T11:19:49;95959.56;;;14.66;37.04
44079;BME280;29744;49.078;12.878;2024-01-07T11:24:51;95957.63;;;14.67;36.89
44079;BME280;29744;49.078;12.878;2024-01-07T11:29:55;95959.88;;;14.65;36.72
44079;BME280;29744;49.078;12.878;2024-01-07T11:34:56;95978.00;;;14.64;37.26
44079;BME280;29744;49.078;12.878;2024-01-07T11:44:59;95977.88;;;14.61;37.00
44079;BME280;29744;49.078;12.878;2024-01-07T11:50:00;95976.63;;;14.58;36.62
44079;BME280;29744;49.078;12.878;2024-01-07T11:55:00;95982.38;;;14.57;37.04
44079;BME280;29744;49.078;12.878;2024-01-07T12:00:01;95988.88;;;14.56;36.83
44079;BME280;29744;49.078;12.878;2024-01-07T12:05:04;95995.63;;;14.49;34.05
44079;BME280;29744;49.078;12.878;2024-01-07T12:10:07;95995.22;;;14.06;31.13
44079;BME280;29744;49.078;12.878;2024-01-07T12:15:12;95995.91;;;13.52;30.92
44079;BME280;29744;49.078;12.878;2024-01-07T12:20:14;95999.06;;;13.25;31.33
44079;BME280;29744;49.078;12.878;2024-01-07T12:25:21;96004.34;;;13.13;31.67
44079;BME280;29744;49.078;12.878;2024-01-07T12:30:24;96013.88;;;13.10;32.48
44079;BME280;29744;49.078;12.878;2024-01-07T12:35:28;96018.28;;;13.15;32.70
44079;BME280;29744;49.078;12.878;2024-01-07T12:40:28;96023.94;;;13.22;33.01
44079;BME280;29744;49.078;12.878;2024-01-07T12:45:28;96023.91;;;13.31;33.15
44079;BME280;29744;49.078;12.878;2024-01-07T12:50:29;96026.25;;;13.41;32.97
44079;BME280;29744;49.078;12.878;2024-01-07T12:55:31;96027.00;;;13.50;33.16
44079;BME280;29744;49.078;12.878;2024-01-07T13:00:32;96032.31;;;13.59;33.64
44079;BME280;29744;49.078;12.878;2024-01-07T13:05:34;96040.34;;;13.67;33.46
44079;BME280;29744;49.078;12.878;2024-01-07T13:10:34;96045.22;;;13.74;33.27
44079;BME280;29744;49.078;12.878;2024-01-07T13:15:35;96053.91;;;13.79;33.25
44079;BME280;29744;49.078;12.878;2024-01-07T13:20:35;96059.91;;;13.85;33.57
44079;BME280;29744;49.078;12.878;2024-01-07T13:25:36;96063.53;;;13.89;33.77
44079;BME280;29744;49.078;12.878;2024-01-07T13:30:37;96070.63;;;13.94;33.95
44079;BME280;29744;49.078;12.878;2024-01-07T13:35:38;96074.25;;;13.98;33.66
44079;BME280;29744;49.078;12.878;2024-01-07T13:40:38;96074.72;;;14.00;33.79
44079;BME280;29744;49.078;12.878;2024-01-07T13:45:38;96083.28;;;14.02;34.01
44079;BME280;29744;49.078;12.878;2024-01-07T13:50:39;96078.34;;;14.04;33.84
44079;BME280;29744;49.078;12.878;2024-01-07T13:55:39;96090.69;;;14.05;34.23
44079;BME280;29744;49.078;12.878;2024-01-07T14:00:39;96091.50;;;14.05;34.07
44079;BME280;29744;49.078;12.878;2024-01-07T14:05:40;96096.56;;;14.07;34.38
44079;BME280;29744;49.078;12.878;2024-01-07T14:10:41;96108.44;;;14.06;34.23
44079;BME280;29744;49.078;12.878;2024-01-07T14:15:42;96110.81;;;14.07;34.55
44079;BME280;29744;49.078;12.878;2024-01-07T14:20:43;96121.59;;;14.07;34.09
44079;BME280;29744;49.078;12.878;2024-01-07T14:25:44;96132.41;;;14.07;34.49
44079;BME280;29744;49.078;12.878;2024-01-07T14:30:44;96145.09;;;14.07;34.74
44079;BME280;29744;49.078;12.878;2024-01-07T14:35:44;96146.19;;;14.06;34.55
44079;BME280;29744;49.078;12.878;2024-01-07T14:40:45;96158.09;;;14.05;34.74
44079;BME280;29744;49.078;12.878;2024-01-07T14:45:46;96158.44;;;14.03;34.80
44079;BME280;29744;49.078;12.878;2024-01-07T14:50:46;96169.22;;;14.03;34.69
44079;BME280;29744;49.078;12.878;2024-01-07T14:55:47;96165.72;;;14.03;34.73
44079;BME280;29744;49.078;12.878;2024-01-07T15:00:48;96182.22;;;14.01;34.67
44079;BME280;29744;49.078;12.878;2024-01-07T15:05:48;96190.31;;;14.01;34.71
44079;BME280;29744;49.078;12.878;2024-01-07T15:10:49;96185.25;;;14.00;34.79
44079;BME280;29744;49.078;12.878;2024-01-07T15:15:49;96191.75;;;13.99;34.78
44079;BME280;29744;49.078;12.878;2024-01-07T15:20:49;96199.06;;;13.98;34.81
44079;BME280;29744;49.078;12.878;2024-01-07T15:25:51;96208.59;;;13.96;34.99
44079;BME280;29744;49.078;12.878;2024-01-07T15:30:52;96208.59;;;13.96;35.08
44079;BME280;29744;49.078;12.878;2024-01-07T15:35:52;96210.03;;;13.93;34.80
44079;BME280;29744;49.078;12.878;2024-01-07T15:40:53;96216.22;;;13.94;34.90
44079;BME280;29744;49.078;12.878;2024-01-07T15:45:53;96217.31;;;13.93;35.21
44079;BME280;29744;49.078;12.878;2024-01-07T15:50:53;96224.31;;;13.94;34.98
44079;BME280;29744;49.078;12.878;2024-01-07T15:55:54;96243.31;;;13.97;34.96
44079;BME280;29744;49.078;12.878;2024-01-07T16:00:54;96239.66;;;14.02;35.21
44079;BME280;29744;49.078;12.878;2024-01-07T16:05:55;96244.53;;;14.08;35.25
44079;BME280;29744;49.078;12.878;2024-01-07T16:10:56;96250.19;;;14.15;35.21
44079;BME280;29744;49.078;12.878;2024-01-07T16:15:57;96254.47;;;14.25;35.41
44079;BME280;29744;49.078;12.878;2024-01-07T16:20:57;96257.13;;;14.34;35.53
44079;BME280;29744;49.078;12.878;2024-01-07T16:25:58;96274.50;;;14.45;35.18
44079;BME280;29744;49.078;12.878;2024-01-07T16:30:58;96278.41;;;14.56;35.27
44079;BME280;29744;49.078;12.878;2024-01-07T16:35:59;96283.41;;;14.66;35.41
44079;BME280;29744;49.078;12.878;2024-01-07T16:40:59;96289.56;;;14.75;35.24
44079;BME280;29744;49.078;12.878;2024-01-07T16:45:59;96289.16;;;14.86;35.37
44079;BME280;29744;49.078;12.878;2024-01-07T16:51:00;96294.16;;;14.96;35.02
44079;BME280;29744;49.078;12.878;2024-01-07T16:56:00;96302.56;;;15.03;34.83
44079;BME280;29744;49.078;12.878;2024-01-07T17:01:00;96299.78;;;15.11;35.36
44079;BME280;29744;49.078;12.878;2024-01-07T17:06:01;96306.25;;;15.19;35.38
44079;BME280;29744;49.078;12.878;2024-01-07T17:11:03;96319.22;;;15.26;35.02
44079;BME280;29744;49.078;12.878;2024-01-07T17:16:03;96331.06;;;15.33;35.15
44079;BME280;29744;49.078;12.878;2024-01-07T17:21:04;96329.75;;;15.39;34.90
44079;BME280;29744;49.078;12.878;2024-01-07T17:26:04;96341.16;;;15.45;34.80
44079;BME280;29744;49.078;12.878;2024-01-07T17:31:05;96354.47;;;15.50;35.24
44079;BME280;29744;49.078;12.878;2024-01-07T17:36:06;96357.75;;;15.56;35.03
44079;BME280;29744;49.078;12.878;2024-01-07T17:41:06;96363.28;;;15.59;34.87
44079;BME280;29744;49.078;12.878;2024-01-07T17:46:07;96373.09;;;15.64;34.86
44079;BME280;29744;49.078;12.878;2024-01-07T17:51:08;96378.63;;;15.67;34.87
44079;BME280;29744;49.078;12.878;2024-01-07T17:56:17;96397.22;;;15.69;34.90
44079;BME280;29744;49.078;12.878;2024-01-07T18:01:18;96393.06;;;15.71;34.37
44079;BME280;29744;49.078;12.878;2024-01-07T18:06:18;96393.53;;;15.73;35.00
44079;BME280;29744;49.078;12.878;2024-01-07T18:11:19;96391.59;;;15.74;34.68
44079;BME280;29744;49.078;12.878;2024-01-07T18:16:19;96397.81;;;15.74;34.73
44079;BME280;29744;49.078;12.878;2024-01-07T18:21:19;96399.72;;;15.74;34.42
44079;BME280;29744;49.078;12.878;2024-01-07T18:26:20;96412.44;;;15.73;34.37
44079;BME280;29744;49.078;12.878;2024-01-07T18:31:20;96416.28;;;15.72;34.30
44079;BME280;29744;49.078;12.878;2024-01-07T18:36:21;96417.06;;;15.73;34.68
44079;BME280;29744;49.078;12.878;2024-01-07T18:41:21;96425.84;;;15.70;34.92
44079;BME280;29744;49.078;12.878;2024-01-07T18:46:22;96429.66;;;15.69;34.89
44079;BME280;29744;49.078;12.878;2024-01-07T18:51:23;96433.03;;;15.66;34.40
44079;BME280;29744;49.078;12.878;2024-01-07T18:56:24;96438.75;;;15.64;34.49
44079;BME280;29744;49.078;12.878;2024-01-07T19:01:25;96446.75;;;15.61;34.59
44079;BME280;29744;49.078;12.878;2024-01-07T19:06:25;96449.31;;;15.57;34.41
44079;BME280;29744;49.078;12.878;2024-01-07T19:11:25;96453.47;;;15.55;34.86
44079;BME280;29744;49.078;12.878;2024-01-07T19:16:26;96464.94;;;15.52;34.73
44079;BME280;29744;49.078;12.878;2024-01-07T19:21:26;96466.72;;;15.48;34.96
44079;BME280;29744;49.078;12.878;2024-01-07T19:26:30;96466.59;;;15.44;35.02
44079;BME280;29744;49.078;12.878;2024-01-07T19:31:31;96469.94;;;15.41;34.75
44079;BME280;29744;49.078;12.878;2024-01-07T19:36:31;96484.09;;;15.38;34.87
44079;BME280;29744;49.078;12.878;2024-01-07T19:41:33;96485.56;;;15.35;34.78
44079;BME280;29744;49.078;12.878;2024-01-07T19:46:35;96495.44;;;15.31;35.08
44079;BME280;29744;49.078;12.878;2024-01-07T19:51:36;96504.97;;;15.29;35.08
44079;BME280;29744;49.078;12.878;2024-01-07T19:56:37;96502.94;;;15.26;34.59
44079;BME280;29744;49.078;12.878;2024-01-07T20:01:37;96509.00;;;15.23;34.79
44079;BME280;29744;49.078;12.878;2024-01-07T20:06:38;96502.66;;;15.19;35.21
44079;BME280;29744;49.078;12.878;2024-01-07T20:11:39;96510.28;;;15.17;35.03
44079;BME280;29744;49.078;12.878;2024-01-07T20:16:39;96508.72;;;15.16;35.30
44079;BME280;29744;49.078;12.878;2024-01-07T20:21:40;96517.13;;;15.14;35.29
44079;BME280;29744;49.078;12.878;2024-01-07T20:26:41;96514.91;;;15.16;35.28
44079;BME280;29744;49.078;12.878;2024-01-07T20:31:41;96516.81;;;15.16;35.01
44079;BME280;29744;49.078;12.878;2024-01-07T20:36:42;96521.88;;;15.17;35.07
44079;BME280;29744;49.078;12.878;2024-01-07T20:41:43;96526.97;;;15.19;35.09
44079;BME280;29744;49.078;12.878;2024-01-07T20:46:44;96530.94;;;15.21;35.24
44079;BME280;29744;49.078;12.878;2024-01-07T20:51:44;96531.41;;;15.23;35.02
44079;BME280;29744;49.078;12.878;2024-01-07T20:56:45;96529.16;;;15.25;35.26
44079;BME280;29744;49.078;12.878;2024-01-07T21:01:45;96538.19;;;15.29;35.15
44079;BME280;29744;49.078;12.878;2024-01-07T21:06:46;96536.75;;;15.32;35.19
44079;BME280;29744;49.078;12.878;2024-01-07T21:11:46;96539.94;;;15.34;34.98
44079;BME280;29744;49.078;12.878;2024-01-07T21:16:46;96546.59;;;15.36;34.84
44079;BME280;29744;49.078;12.878;2024-01-07T21:21:47;96548.16;;;15.37;34.87
44079;BME280;29744;49.078;12.878;2024-01-07T21:26:47;96545.47;;;15.37;35.36
44079;BME280;29744;49.078;12.878;2024-01-07T21:31:48;96538.47;;;15.36;35.24
44079;BME280;29744;49.078;12.878;2024-01-07T21:36:49;96541.19;;;15.36;34.93
44079;BME280;29744;49.078;12.878;2024-01-07T21:41:49;96532.28;;;15.36;35.05
44079;BME280;29744;49.078;12.878;2024-01-07T21:46:50;96544.22;;;15.35;34.73
44079;BME280;29744;49.078;12.878;2024-01-07T21:51:50;96550.72;;;15.34;35.18
44079;BME280;29744;49.078;12.878;2024-01-07T21:56:52;96555.66;;;15.32;34.96
44079;BME280;29744;49.078;12.878;2024-01-07T22:01:52;96548.69;;;15.31;35.27
44079;BME280;29744;49.078;12.878;2024-01-07T22:06:52;96552.50;;;15.30;35.07
44079;BME280;29744;49.078;12.878;2024-01-07T22:11:53;96565.88;;;15.26;35.03
44079;BME280;29744;49.078;12.878;2024-01-07T22:16:53;96559.19;;;15.24;35.12
44079;BME280;29744;49.078;12.878;2024-01-07T22:21:54;96566.06;;;15.21;35.36
44079;BME280;29744;49.078;12.878;2024-01-07T22:26:54;96570.19;;;15.19;35.28
44079;BME280;29744;49.078;12.878;2024-01-07T22:31:54;96581.31;;;15.17;35.30
44079;BME280;29744;49.078;12.878;2024-01-07T22:36:55;96572.75;;;15.15;34.94
44079;BME280;29744;49.078;12.878;2024-01-07T22:41:55;96581.50;;;15.12;35.00
44079;BME280;29744;49.078;12.878;2024-01-07T22:46:55;96572.13;;;15.09;35.08
44079;BME280;29744;49.078;12.878;2024-01-07T22:51:55;96577.06;;;15.07;35.31
44079;BME280;29744;49.078;12.878;2024-01-07T22:56:58;96575.81;;;15.05;34.92
44079;BME280;29744;49.078;12.878;2024-01-07T23:01:58;96581.81;;;15.02;34.99
44079;BME280;29744;49.078;12.878;2024-01-07T23:06:59;96574.38;;;14.99;35.10
44079;BME280;29744;49.078;12.878;2024-01-07T23:11:59;96585.81;;;14.96;35.41
44079;BME280;29744;49.078;12.878;2024-01-07T23:17:00;96577.88;;;14.91;34.99
44079;BME280;29744;49.078;12.878;2024-01-07T23:22:00;96580.91;;;14.89;35.40
44079;BME280;29744;49.078;12.878;2024-01-07T23:27:00;96588.84;;;14.86;35.16
44079;BME280;29744;49.078;12.878;2024-01-07T23:32:01;96592.19;;;14.82;34.89
44079;BME280;29744;49.078;12.878;2024-01-07T23:37:01;96586.66;;;14.79;35.00
44079;BME280;29744;49.078;12.878;2024-01-07T23:42:01;96582.69;;;14.76;35.50
44079;BME280;29744;49.078;12.878;2024-01-07T23:47:02;96587.63;;;14.74;35.55
44079;BME280;29744;49.078;12.878;2024-01-07T23:52:02;96581.28;;;14.70;35.04
44079;BME280;29744;49.078;12.878;2024-01-07T23:57:03;96587.31;;;14.67;35.10
